createdAt,value
2022-12-03T00:01:04.323Z,12.13
2022-12-03T00:03:31.129Z,13.40
2022-12-03T00:05:57.891Z,11.88
2022-12-03T00:08:24.486Z,10.95
2022-12-03T00:10:51.165Z,12.82
2022-12-03T00:13:17.894Z,12.27
2022-12-03T00:15:44.469Z,10.47
2022-12-03T00:18:12.572Z,10.20
2022-12-03T00:20:39.083Z,11.07
2022-12-03T00:23:05.799Z,12.30
2022-12-03T00:25:32.574Z,11.13
2022-12-03T00:27:59.165Z,9.63
2022-12-03T00:30:25.986Z,11.98
2022-12-03T00:32:52.505Z,11.30
2022-12-03T00:35:20.595Z,10.73
2022-12-03T00:37:47.148Z,11.43
2022-12-03T00:40:14.011Z,13.20
2022-12-03T00:42:40.534Z,11.25
2022-12-03T00:45:07.882Z,11.38
2022-12-03T00:47:34.409Z,13.77
2022-12-03T00:50:01.009Z,12.73
2022-12-03T00:52:28.971Z,11.33
2022-12-03T00:54:55.787Z,12.27
2022-12-03T00:57:22.595Z,12.95
2022-12-03T00:59:49.200Z,12.57
2022-12-03T01:02:15.940Z,12.40
2022-12-03T01:04:42.646Z,12.97
2022-12-03T01:07:09.404Z,12.88
2022-12-03T01:09:37.407Z,14.05
2022-12-03T01:12:04.080Z,13.90
2022-12-03T01:14:30.811Z,13.90
2022-12-03T01:16:57.322Z,13.67
2022-12-03T01:19:24.010Z,13.15
2022-12-03T01:21:51.790Z,13.27
2022-12-03T01:24:19.412Z,14.57
2022-12-03T01:26:47.514Z,14.05
2022-12-03T01:29:14.483Z,13.40
2022-12-03T01:31:41.156Z,13.02
2022-12-03T01:34:07.742Z,13.48
2022-12-03T01:36:34.295Z,13.00
2022-12-03T01:39:01.007Z,14.52
2022-12-03T01:41:28.098Z,13.27
2022-12-03T01:43:57.680Z,13.60
2022-12-03T01:46:27.655Z,13.60
2022-12-03T01:48:56.514Z,13.35
2022-12-03T01:51:23.266Z,14.13
2022-12-03T01:53:50.249Z,13.70
2022-12-03T01:56:18.449Z,13.75
2022-12-03T01:58:46.200Z,11.50
2022-12-03T02:01:16.382Z,12.05
2022-12-03T02:03:43.218Z,13.93
2022-12-03T02:06:15.798Z,15.20
2022-12-03T02:08:42.834Z,16.42
2022-12-03T02:11:17.606Z,13.45
2022-12-03T02:13:44.766Z,15.15
2022-12-03T02:16:11.565Z,14.00
2022-12-03T02:18:39.707Z,13.57
2022-12-03T02:21:13.813Z,13.68
2022-12-03T02:23:51.613Z,17.25
2022-12-03T02:26:19.684Z,14.27
2022-12-03T02:28:46.265Z,12.85
2022-12-03T02:31:13.032Z,14.40
2022-12-03T02:33:40.075Z,14.15
2022-12-03T02:36:07.318Z,13.15
2022-12-03T02:38:35.669Z,13.73
2022-12-03T02:41:06.752Z,17.10
2022-12-03T02:43:35.012Z,14.23
2022-12-03T02:46:03.580Z,13.30
2022-12-03T02:48:34.683Z,15.50
2022-12-03T02:51:04.200Z,14.77
2022-12-03T02:53:37.421Z,17.13
2022-12-03T02:56:05.471Z,17.67
2022-12-03T02:58:34.329Z,14.43
2022-12-03T03:01:02.579Z,17.45
2022-12-03T03:03:30.881Z,16.05
2022-12-03T03:05:59.305Z,17.05
2022-12-03T03:08:27.075Z,16.63
2022-12-03T03:10:55.421Z,19.02
2022-12-03T03:13:22.146Z,18.98
2022-12-03T03:15:50.411Z,15.82
2022-12-03T03:18:17.841Z,17.65
2022-12-03T03:20:45.022Z,16.70
2022-12-03T03:23:15.247Z,16.88
2022-12-03T03:25:44.437Z,15.88
2022-12-03T03:28:11.973Z,16.90
2022-12-03T03:30:40.954Z,17.20
2022-12-03T03:33:09.955Z,16.63
2022-12-03T03:35:37.211Z,17.48
2022-12-03T03:38:04.456Z,17.55
2022-12-03T03:40:31.453Z,17.20
2022-12-03T03:42:59.576Z,18.80
2022-12-03T03:45:29.437Z,15.37
2022-12-03T03:47:58.035Z,17.40
2022-12-03T03:50:28.128Z,17.17
2022-12-03T03:52:55.454Z,15.85
2022-12-03T03:55:22.517Z,16.48
2022-12-03T03:57:49.142Z,17.37
2022-12-03T04:00:16.482Z,16.02
2022-12-03T04:02:43.434Z,17.00
2022-12-03T04:05:15.954Z,19.60
2022-12-03T04:07:43.866Z,18.85
2022-12-03T04:10:11.449Z,19.20
2022-12-03T04:12:37.992Z,18.48
2022-12-03T04:15:05.814Z,19.05
2022-12-03T04:17:32.586Z,18.38
2022-12-03T04:19:59.271Z,22.17
2022-12-03T04:22:25.787Z,17.87
2022-12-03T04:24:54.143Z,20.95
2022-12-03T04:27:21.131Z,21.13
2022-12-03T04:29:47.670Z,18.20
2022-12-03T04:32:14.196Z,17.20
2022-12-03T04:34:40.737Z,18.60
2022-12-03T04:37:07.321Z,17.83
2022-12-03T04:39:34.332Z,18.92
2022-12-03T04:42:03.080Z,18.10
2022-12-03T04:44:29.656Z,20.88
2022-12-03T04:46:56.272Z,22.30
2022-12-03T04:49:22.966Z,19.40
2022-12-03T04:51:49.704Z,21.20
2022-12-03T04:54:16.329Z,20.30
2022-12-03T04:56:43.187Z,19.13
2022-12-03T04:59:15.781Z,19.63
2022-12-03T05:01:43.013Z,18.92
2022-12-03T05:04:09.711Z,20.17
2022-12-03T05:06:36.243Z,19.52
2022-12-03T05:09:03.034Z,20.25
2022-12-03T05:11:29.712Z,19.90
2022-12-03T05:13:56.243Z,20.10
2022-12-03T05:16:24.185Z,19.70
2022-12-03T05:18:50.921Z,22.27
2022-12-03T05:21:17.468Z,21.60
2022-12-03T05:23:44.093Z,19.80
2022-12-03T05:26:11.030Z,23.15
2022-12-03T05:28:37.700Z,21.83
2022-12-03T05:31:04.308Z,20.88
2022-12-03T05:33:32.709Z,19.02
2022-12-03T05:35:59.573Z,18.90
2022-12-03T05:38:26.278Z,24.40
2022-12-03T05:40:52.788Z,18.98
2022-12-03T05:43:19.405Z,20.90
2022-12-03T05:45:46.013Z,21.95
2022-12-03T05:48:15.627Z,19.00
2022-12-03T05:50:45.673Z,20.15
2022-12-03T05:53:12.744Z,19.75
2022-12-03T05:55:39.548Z,19.75
2022-12-03T05:58:06.631Z,19.88
2022-12-03T06:00:40.587Z,23.37
2022-12-03T06:03:09.152Z,19.58
2022-12-03T06:05:35.783Z,22.40
2022-12-03T06:08:04.438Z,22.17
2022-12-03T06:10:31.341Z,22.00
2022-12-03T06:12:57.923Z,21.67
2022-12-03T06:15:24.512Z,21.08
2022-12-03T06:17:51.225Z,21.60
2022-12-03T06:20:19.794Z,19.52
2022-12-03T06:22:46.721Z,20.42
2022-12-03T06:25:15.830Z,18.90
2022-12-03T06:27:42.398Z,19.27
2022-12-03T06:30:11.296Z,19.80
2022-12-03T06:32:37.805Z,19.92
2022-12-03T06:35:05.058Z,20.83
2022-12-03T06:37:31.607Z,21.23
2022-12-03T06:39:58.320Z,21.80
2022-12-03T06:42:26.234Z,21.17
2022-12-03T06:44:53.324Z,22.55
2022-12-03T06:47:20.327Z,19.00
2022-12-03T06:49:47.086Z,22.10
2022-12-03T06:52:13.620Z,21.45
2022-12-03T06:54:40.158Z,23.98
2022-12-03T06:57:06.649Z,24.10
2022-12-03T06:59:34.620Z,19.83
2022-12-03T07:02:01.311Z,22.00
2022-12-03T07:04:27.914Z,21.15
2022-12-03T07:06:54.524Z,22.67
2022-12-03T07:09:21.041Z,22.10
2022-12-03T07:11:47.641Z,25.02
2022-12-03T07:14:15.127Z,23.10
2022-12-03T07:16:43.536Z,22.98
2022-12-03T07:19:10.811Z,22.52
2022-12-03T07:21:37.662Z,23.17
2022-12-03T07:24:04.406Z,21.38
2022-12-03T07:26:31.182Z,24.97
2022-12-03T07:28:58.428Z,23.85
2022-12-03T07:31:25.217Z,25.77
2022-12-03T07:33:53.227Z,24.90
2022-12-03T07:36:19.915Z,25.27
2022-12-03T07:38:46.507Z,24.17
2022-12-03T07:41:13.192Z,23.70
2022-12-03T07:43:39.727Z,25.88
2022-12-03T07:46:06.445Z,29.05
2022-12-03T07:48:32.990Z,28.98
2022-12-03T07:51:00.941Z,24.63
2022-12-03T07:53:27.628Z,25.88
2022-12-03T07:55:54.172Z,28.30
2022-12-03T07:58:20.859Z,25.90
2022-12-03T08:00:47.507Z,27.48
2022-12-03T08:03:14.167Z,25.07
2022-12-03T08:05:40.779Z,27.63
2022-12-03T08:08:08.933Z,28.77
2022-12-03T08:10:35.539Z,25.73
2022-12-03T08:13:06.658Z,27.48
2022-12-03T08:15:39.078Z,27.40
2022-12-03T08:18:13.561Z,26.13
2022-12-03T08:20:41.562Z,27.52
2022-12-03T08:23:13.838Z,29.25
2022-12-03T08:25:40.631Z,28.08
2022-12-03T08:28:12.525Z,23.93
2022-12-03T08:30:39.473Z,28.38
2022-12-03T08:33:16.611Z,29.17
2022-12-03T08:35:48.533Z,25.52
2022-12-03T08:38:17.953Z,28.08
2022-12-03T08:40:46.795Z,28.43
2022-12-03T08:43:19.382Z,24.63
2022-12-03T08:45:46.409Z,25.45
2022-12-03T08:48:24.369Z,26.92
2022-12-03T08:50:51.279Z,28.48
2022-12-03T08:53:28.268Z,27.17
2022-12-03T08:55:57.354Z,26.88
2022-12-03T08:58:27.857Z,27.02
2022-12-03T09:00:58.490Z,30.00
2022-12-03T09:03:25.509Z,29.90
2022-12-03T09:05:52.061Z,28.53
2022-12-03T09:08:18.717Z,28.15
2022-12-03T09:10:46.758Z,27.83
2022-12-03T09:13:13.312Z,26.98
2022-12-03T09:15:39.822Z,30.77
2022-12-03T09:18:06.481Z,32.47
2022-12-03T09:20:33.080Z,33.38
2022-12-03T09:22:59.747Z,32.25
2022-12-03T09:25:26.334Z,24.40
2022-12-03T09:27:54.364Z,28.17
2022-12-03T09:30:20.939Z,29.60
2022-12-03T09:32:47.491Z,27.30
2022-12-03T09:35:14.124Z,25.10
2022-12-03T09:37:40.758Z,25.50
2022-12-03T09:40:09.014Z,25.25
2022-12-03T09:42:36.249Z,27.23
2022-12-03T09:45:07.667Z,26.73
2022-12-03T09:47:34.479Z,27.58
2022-12-03T09:50:01.083Z,27.13
2022-12-03T09:52:31.377Z,25.35
2022-12-03T09:54:59.403Z,25.80
2022-12-03T09:57:26.361Z,23.77
2022-12-03T09:59:58.415Z,28.75
2022-12-03T10:02:30.533Z,26.05
2022-12-03T10:04:58.128Z,25.85
2022-12-03T10:07:25.622Z,25.07
2022-12-03T10:09:53.095Z,25.42
2022-12-03T10:12:24.084Z,24.80
2022-12-03T10:14:51.557Z,27.52
2022-12-03T10:17:18.458Z,25.27
2022-12-03T10:19:46.653Z,22.90
2022-12-03T10:22:13.248Z,25.05
2022-12-03T10:24:40.042Z,26.17
2022-12-03T10:27:21.393Z,23.17
2022-12-03T10:29:55.261Z,25.90
2022-12-03T10:32:25.878Z,27.57
2022-12-03T10:35:07.604Z,25.17
2022-12-03T10:37:34.217Z,25.73
2022-12-03T10:40:02.187Z,25.70
2022-12-03T10:42:30.950Z,25.30
2022-12-03T10:45:15.816Z,23.73
2022-12-03T10:47:43.125Z,26.35
2022-12-03T10:50:17.978Z,25.95
2022-12-03T10:52:45.887Z,21.42
2022-12-03T10:55:13.774Z,26.48
2022-12-03T10:57:45.712Z,27.50
2022-12-03T11:00:16.573Z,25.92
2022-12-03T11:02:43.197Z,24.02
2022-12-03T11:05:15.388Z,25.27
2022-12-03T11:07:43.998Z,25.08
2022-12-03T11:10:14.445Z,27.10
2022-12-03T11:12:41.306Z,28.35
2022-12-03T11:15:15.176Z,27.35
2022-12-03T11:17:44.697Z,26.25
2022-12-03T11:20:55.931Z,25.48
2022-12-03T11:23:55.745Z,27.23
2022-12-03T11:26:55.782Z,25.67
2022-12-03T11:29:49.198Z,29.02
2022-12-03T11:33:00.741Z,23.67
2022-12-03T11:35:34.789Z,26.63
2022-12-03T11:38:55.963Z,26.07
2022-12-03T11:41:28.711Z,25.67
2022-12-03T11:44:20.825Z,23.08
2022-12-03T11:46:48.935Z,24.38
2022-12-03T11:49:25.472Z,24.60
2022-12-03T11:51:52.148Z,22.60
2022-12-03T11:54:21.853Z,25.27
2022-12-03T11:56:49.755Z,26.98
2022-12-03T11:59:17.295Z,25.45
2022-12-03T12:01:44.473Z,23.67
2022-12-03T12:07:35.415Z,25.67
2022-12-03T12:10:02.815Z,25.17
2022-12-03T12:12:31.418Z,25.40
2022-12-03T12:14:59.419Z,25.45
2022-12-03T12:17:34.131Z,25.63
2022-12-03T12:20:22.854Z,26.27
2022-12-03T12:22:51.255Z,24.23
2022-12-03T12:25:40.714Z,26.57
2022-12-03T12:28:07.854Z,26.10
2022-12-03T12:30:34.660Z,26.50
2022-12-03T12:33:20.952Z,28.35
2022-12-03T12:35:47.561Z,25.40
2022-12-03T12:38:19.892Z,26.27
2022-12-03T12:40:48.559Z,27.42
2022-12-03T12:43:24.098Z,27.27
2022-12-03T12:45:53.122Z,29.95
2022-12-03T12:48:23.951Z,27.23
2022-12-03T12:50:57.302Z,23.23
2022-12-03T12:53:27.338Z,27.17
2022-12-03T12:55:56.427Z,28.85
2022-12-03T12:58:24.147Z,25.38
2022-12-03T13:00:53.085Z,32.30
2022-12-03T13:03:22.056Z,27.17
2022-12-03T13:05:50.777Z,25.08
2022-12-03T13:08:22.818Z,22.33
2022-12-03T13:10:51.577Z,22.65
2022-12-03T13:13:28.805Z,26.45
2022-12-03T13:16:17.182Z,21.83
2022-12-03T13:18:46.119Z,29.10
2022-12-03T13:21:22.621Z,22.50
2022-12-03T13:23:51.342Z,24.00
2022-12-03T13:26:36.057Z,23.42
2022-12-03T13:29:10.848Z,22.80
2022-12-03T13:31:43.237Z,26.60
2022-12-03T13:34:14.250Z,26.73
2022-12-03T13:36:43.000Z,29.02
2022-12-03T13:39:15.474Z,27.73
2022-12-03T13:41:43.600Z,25.63
2022-12-03T13:44:15.618Z,30.20
2022-12-03T13:46:42.517Z,29.70
2022-12-03T13:49:21.556Z,30.02
2022-12-03T13:51:49.156Z,25.73
2022-12-03T13:54:20.197Z,28.90
2022-12-03T13:56:48.467Z,33.60
2022-12-03T13:59:15.232Z,28.85
2022-12-03T14:01:41.893Z,26.20
2022-12-03T14:04:08.654Z,27.80
2022-12-03T14:06:35.222Z,24.67
2022-12-03T14:09:01.803Z,24.83
2022-12-03T14:11:28.505Z,27.35
2022-12-03T14:13:56.439Z,24.90
2022-12-03T14:16:23.576Z,26.70
2022-12-03T14:18:50.187Z,23.27
2022-12-03T14:21:16.753Z,24.73
2022-12-03T14:23:43.358Z,23.25
2022-12-03T14:26:09.953Z,25.50
2022-12-03T14:28:36.512Z,23.67
2022-12-03T14:31:04.621Z,24.47
2022-12-03T14:33:31.145Z,24.90
2022-12-03T14:35:57.730Z,28.55
2022-12-03T14:38:24.631Z,25.80
2022-12-03T14:40:51.291Z,26.45
2022-12-03T14:43:18.014Z,26.73
2022-12-03T14:45:44.612Z,28.85
2022-12-03T14:48:12.581Z,25.38
2022-12-03T14:50:39.098Z,25.67
2022-12-03T14:53:05.585Z,26.88
2022-12-03T14:55:32.289Z,26.70
2022-12-03T14:57:58.832Z,25.60
2022-12-03T15:00:25.651Z,27.35
2022-12-03T15:02:52.236Z,25.40
2022-12-03T15:05:26.401Z,25.02
2022-12-03T15:07:55.005Z,21.87
2022-12-03T15:10:21.806Z,27.13
2022-12-03T15:12:48.379Z,28.13
2022-12-03T15:15:15.259Z,27.58
2022-12-03T15:17:41.811Z,27.67
2022-12-03T15:20:09.280Z,26.47
2022-12-03T15:22:37.195Z,24.15
2022-12-03T15:25:04.056Z,23.60
2022-12-03T15:27:30.567Z,25.98
2022-12-03T15:29:57.167Z,26.73
2022-12-03T15:32:23.858Z,24.70
2022-12-03T15:34:50.357Z,29.08
2022-12-03T15:37:17.353Z,24.10
2022-12-03T15:39:48.683Z,27.40
2022-12-03T15:42:15.581Z,24.90
2022-12-03T15:44:42.107Z,22.20
2022-12-03T15:47:08.618Z,22.45
2022-12-03T15:49:35.212Z,23.95
2022-12-03T15:52:01.941Z,25.60
2022-12-03T15:54:28.525Z,25.58
2022-12-03T15:56:57.734Z,20.67
2022-12-03T15:59:24.701Z,23.50
2022-12-03T16:01:51.292Z,25.80
2022-12-03T16:04:18.004Z,23.80
2022-12-03T16:06:44.565Z,27.52
2022-12-03T16:09:11.127Z,23.17
2022-12-03T16:11:37.710Z,27.35
2022-12-03T16:14:05.617Z,25.25
2022-12-03T16:16:32.479Z,28.88
2022-12-03T16:18:59.056Z,24.60
2022-12-03T16:21:27.344Z,24.00
2022-12-03T16:23:54.265Z,25.55
2022-12-03T16:26:21.095Z,27.48
2022-12-03T16:28:47.656Z,25.83
2022-12-03T16:31:15.786Z,26.17
2022-12-03T16:33:42.457Z,24.43
2022-12-03T16:36:09.406Z,27.48
2022-12-03T16:38:35.926Z,26.35
2022-12-03T16:41:02.595Z,25.40
2022-12-03T16:43:29.273Z,25.40
2022-12-03T16:45:55.896Z,26.03
2022-12-03T16:48:24.075Z,25.02
2022-12-03T16:50:50.628Z,26.05
2022-12-03T16:53:17.379Z,25.30
2022-12-03T16:55:43.938Z,27.63
2022-12-03T16:58:10.470Z,23.20
2022-12-03T17:00:37.035Z,28.50
2022-12-03T17:03:03.765Z,29.92
2022-12-03T17:05:32.013Z,25.42
2022-12-03T17:07:58.649Z,26.77
2022-12-03T17:10:25.307Z,31.53
2022-12-03T17:15:38.858Z,25.35
2022-12-03T17:18:06.469Z,23.70
2022-12-03T17:20:34.935Z,27.58
2022-12-03T17:23:01.963Z,27.40
2022-12-03T17:25:28.809Z,31.95
2022-12-03T17:27:55.627Z,28.75
2022-12-03T17:30:22.263Z,29.45
2022-12-03T17:32:48.886Z,27.70
2022-12-03T17:35:15.904Z,27.73
2022-12-03T17:37:43.831Z,23.77
2022-12-03T17:40:12.886Z,24.80
2022-12-03T17:42:39.635Z,24.27
2022-12-03T17:45:07.587Z,23.70
2022-12-03T17:47:34.172Z,24.37
2022-12-03T17:50:00.733Z,20.77
2022-12-03T17:52:27.326Z,29.73
2022-12-03T17:55:10.434Z,20.92
2022-12-03T17:57:39.623Z,25.80
2022-12-03T18:00:07.441Z,26.07
2022-12-03T18:02:34.018Z,26.05
2022-12-03T18:05:00.535Z,28.73
2022-12-03T18:07:27.298Z,25.60
2022-12-03T18:09:55.523Z,29.88
2022-12-03T18:12:22.400Z,31.63
2022-12-03T18:14:49.108Z,28.42
2022-12-03T18:17:15.666Z,35.75
2022-12-03T18:19:42.276Z,25.80
2022-12-03T18:22:08.961Z,29.63
2022-12-03T18:24:35.647Z,26.40
2022-12-03T18:27:03.625Z,23.33
2022-12-03T18:29:30.221Z,32.03
2022-12-03T18:31:56.852Z,23.95
2022-12-03T18:34:23.398Z,27.88
2022-12-03T18:36:49.993Z,26.50
2022-12-03T18:39:23.558Z,24.80
2022-12-03T18:41:50.297Z,23.30
2022-12-03T18:44:18.195Z,26.35
2022-12-03T18:46:53.560Z,28.55
2022-12-03T18:49:21.245Z,33.10
2022-12-03T18:51:48.572Z,25.75
2022-12-03T18:54:15.711Z,24.05
2022-12-03T18:56:42.254Z,27.88
2022-12-03T18:59:09.140Z,22.70
2022-12-03T19:01:37.116Z,23.43
2022-12-03T19:04:03.998Z,23.20
2022-12-03T19:06:30.641Z,23.25
2022-12-03T19:08:57.589Z,23.45
2022-12-03T19:11:24.434Z,23.98
2022-12-03T19:13:51.154Z,22.60
2022-12-03T19:16:17.891Z,23.05
2022-12-03T19:18:45.846Z,20.77
2022-12-03T19:21:14.379Z,20.65
2022-12-03T19:23:42.803Z,24.08
2022-12-03T19:26:14.553Z,21.47
2022-12-03T19:28:41.594Z,30.83
2022-12-03T19:31:10.793Z,27.98
2022-12-03T19:33:38.150Z,21.38
2022-12-03T19:36:08.643Z,19.55
2022-12-03T19:38:35.239Z,25.30
2022-12-03T19:41:04.336Z,24.65
2022-12-03T19:43:31.577Z,26.83
2022-12-03T19:46:02.446Z,23.58
2022-12-03T19:48:29.477Z,24.95
2022-12-03T19:51:13.662Z,26.80
2022-12-03T19:53:43.985Z,25.13
2022-12-03T19:56:12.745Z,27.42
2022-12-03T19:58:40.636Z,23.45
2022-12-03T20:01:08.328Z,26.95
2022-12-03T20:03:34.967Z,24.53
2022-12-03T20:06:01.676Z,21.65
2022-12-03T20:08:28.414Z,21.50
2022-12-03T20:10:56.390Z,22.10
2022-12-03T20:13:23.116Z,23.98
2022-12-03T20:15:49.588Z,24.13
2022-12-03T20:18:16.106Z,22.13
2022-12-03T20:20:42.651Z,24.85
2022-12-03T20:23:09.190Z,25.10
2022-12-03T20:25:36.536Z,28.08
2022-12-03T20:28:04.777Z,24.20
2022-12-03T20:30:31.289Z,24.85
2022-12-03T20:32:57.809Z,22.40
2022-12-03T20:35:24.394Z,26.70
2022-12-03T20:37:50.971Z,24.38
2022-12-03T20:40:17.670Z,25.47
2022-12-03T20:42:46.915Z,26.50
2022-12-03T20:45:15.189Z,23.83
2022-12-03T20:47:41.756Z,25.20
2022-12-03T20:50:08.734Z,24.13
2022-12-03T20:52:35.329Z,27.73
2022-12-03T20:55:02.035Z,25.48
2022-12-03T20:57:28.611Z,30.20
2022-12-03T20:59:55.773Z,25.55
2022-12-03T21:02:23.959Z,28.15
2022-12-03T21:04:50.542Z,25.20
2022-12-03T21:07:17.290Z,25.05
2022-12-03T21:09:43.826Z,26.23
2022-12-03T21:12:10.488Z,23.17
2022-12-03T21:14:37.017Z,27.40
2022-12-03T21:17:08.856Z,22.57
2022-12-03T21:19:37.519Z,32.58
2022-12-03T21:22:04.084Z,26.55
2022-12-03T21:24:30.697Z,30.73
2022-12-03T21:26:57.232Z,23.77
2022-12-03T21:29:24.049Z,25.87
2022-12-03T21:31:50.637Z,27.98
2022-12-03T21:34:17.233Z,27.27
2022-12-03T21:36:45.243Z,25.02
2022-12-03T21:39:11.856Z,31.63
2022-12-03T21:41:38.401Z,27.33
2022-12-03T21:44:05.067Z,25.98
2022-12-03T21:47:11.823Z,26.63
2022-12-03T21:49:18.243Z,24.27
2022-12-03T21:51:46.665Z,22.83
2022-12-03T21:54:13.270Z,25.53
2022-12-03T21:56:39.852Z,25.80
2022-12-03T21:59:06.605Z,25.95
2022-12-03T22:01:33.235Z,25.17
2022-12-03T22:03:59.892Z,24.70
2022-12-03T22:06:26.476Z,27.30
2022-12-03T22:08:54.587Z,25.80
2022-12-03T22:11:23.210Z,22.10
2022-12-03T22:13:50.697Z,25.08
2022-12-03T22:16:19.381Z,26.20
2022-12-03T22:18:46.628Z,27.13
2022-12-03T22:21:15.253Z,25.52
2022-12-03T22:23:41.851Z,27.02
2022-12-03T22:26:13.552Z,25.25
2022-12-03T22:28:42.907Z,22.83
2022-12-03T22:31:10.203Z,28.20
2022-12-03T22:33:37.482Z,23.77
2022-12-03T22:36:05.960Z,24.95
2022-12-03T22:38:32.727Z,27.55
2022-12-03T22:40:59.704Z,23.73
2022-12-03T22:43:27.553Z,26.67
2022-12-03T22:45:55.379Z,23.95
2022-12-03T22:48:22.714Z,25.73
2022-12-03T22:50:50.732Z,22.73
2022-12-03T22:53:17.949Z,22.98
2022-12-03T22:55:44.545Z,22.73
2022-12-03T22:58:11.617Z,21.48
2022-12-03T23:00:41.156Z,24.45
2022-12-03T23:03:08.068Z,23.80
2022-12-03T23:05:36.596Z,21.45
2022-12-03T23:08:03.443Z,24.23
2022-12-03T23:10:34.163Z,25.33
2022-12-03T23:13:01.111Z,23.42
2022-12-03T23:15:28.167Z,21.95
2022-12-03T23:17:56.636Z,22.80
2022-12-03T23:20:23.442Z,21.43
2022-12-03T23:22:50.735Z,20.52
2022-12-03T23:25:18.088Z,22.15
2022-12-03T23:27:45.063Z,20.00
2022-12-03T23:30:14.023Z,21.88
2022-12-03T23:32:40.913Z,19.53
2022-12-03T23:35:10.031Z,19.75
2022-12-03T23:37:36.624Z,19.58
2022-12-03T23:40:04.011Z,17.88
2022-12-03T23:42:30.585Z,17.08
2022-12-03T23:44:57.115Z,19.60
2022-12-03T23:47:23.684Z,19.23
2022-12-03T23:49:50.205Z,20.60
2022-12-03T23:52:18.067Z,16.67
2022-12-03T23:54:44.570Z,17.17
2022-12-03T23:57:11.098Z,16.10
2022-12-03T23:59:37.890Z,16.60
